createdAt,value
2018-02-18T00:00:02.110Z,1.3
2018-02-18T00:05:01.560Z,1.3
2018-02-18T00:10:02.128Z,1.3
2018-02-18T00:15:01.963Z,1.3
2018-02-18T00:20:02.163Z,1.3
2018-02-18T00:25:01.704Z,1.3
2018-02-18T00:30:02.399Z,1.3
2018-02-18T00:35:01.274Z,1.3
2018-02-18T00:40:02.274Z,1.3
2018-02-18T00:45:02.053Z,1.3
2018-02-18T00:50:01.738Z,1.3
2018-02-18T00:55:01.390Z,1.3
2018-02-18T01:00:01.632Z,1.3
2018-02-18T01:05:01.778Z,1.3
2018-02-18T01:10:02.235Z,1.3
2018-02-18T01:15:01.375Z,1.3
2018-02-18T01:20:01.735Z,1.3
2018-02-18T01:25:01.791Z,1.3
2018-02-18T01:30:02.333Z,1.3
2018-02-18T01:35:02.661Z,1.3
2018-02-18T01:40:01.361Z,1.3
2018-02-18T01:45:01.376Z,1.3
2018-02-18T01:50:01.839Z,1.3
2018-02-18T01:55:02.525Z,1.3
2018-02-18T02:00:01.899Z,1.3
2018-02-18T02:05:01.442Z,1.1
2018-02-18T02:10:01.621Z,1.1
2018-02-18T02:15:01.957Z,1.1
2018-02-18T02:20:01.738Z,1.1
2018-02-18T02:25:01.583Z,1.1
2018-02-18T02:30:01.973Z,1.1
2018-02-18T02:35:01.818Z,1.1
2018-02-18T02:40:01.775Z,1.1
2018-02-18T02:45:01.936Z,1.1
2018-02-18T02:50:01.643Z,1.1
2018-02-18T02:55:01.482Z,1.1
2018-02-18T03:00:01.741Z,1.1
2018-02-18T03:05:01.272Z,1.1
2018-02-18T03:10:01.211Z,1.1
2018-02-18T03:15:02.340Z,0.7
2018-02-18T03:20:01.364Z,0.7
2018-02-18T03:25:02.077Z,0.7
2018-02-18T03:30:01.322Z,0.7
2018-02-18T03:35:02.073Z,0.7
2018-02-18T03:40:01.862Z,0.7
2018-02-18T03:45:01.614Z,0.7
2018-02-18T03:50:01.358Z,0.7
2018-02-18T03:55:02.483Z,0.7
2018-02-18T04:00:01.691Z,0.4
2018-02-18T04:05:02.094Z,0.4
2018-02-18T04:10:02.046Z,0.4
2018-02-18T04:15:01.683Z,0.4
2018-02-18T04:20:01.657Z,0.4
2018-02-18T04:25:01.487Z,0.4
2018-02-18T04:30:02.366Z,0.4
2018-02-18T04:35:01.577Z,-0.4
2018-02-18T04:40:01.836Z,-0.5
2018-02-18T04:45:01.647Z,-0.6
2018-02-18T04:50:01.798Z,-0.7
2018-02-18T04:55:01.604Z,-0.8
2018-02-18T05:00:02.159Z,-0.8
2018-02-18T05:05:01.360Z,-0.8
2018-02-18T05:10:01.645Z,-0.8
2018-02-18T05:15:01.992Z,-0.8
2018-02-18T05:20:01.456Z,-1.1
2018-02-18T05:25:02.005Z,-1.2
2018-02-18T05:30:02.160Z,-1.2
2018-02-18T05:35:01.424Z,-1.2
2018-02-18T05:40:01.878Z,-1.2
2018-02-18T05:45:01.963Z,-1.2
2018-02-18T05:50:01.855Z,-1.5
2018-02-18T05:55:02.465Z,-1.6
2018-02-18T06:00:01.612Z,-1.6
2018-02-18T06:05:01.584Z,-1.6
2018-02-18T06:10:01.878Z,-1.6
2018-02-18T06:15:02.221Z,-1.6
2018-02-18T06:20:02.000Z,-1.6
2018-02-18T06:25:01.521Z,-1.6
2018-02-18T06:30:01.896Z,-1.5
2018-02-18T06:35:02.325Z,-1.4
2018-02-18T06:40:01.680Z,-1.4
2018-02-18T06:45:01.540Z,-1.4
2018-02-18T06:50:02.635Z,-1.4
2018-02-18T06:55:01.222Z,-1.4
2018-02-18T07:00:01.552Z,-1
2018-02-18T07:05:02.061Z,-0.9
2018-02-18T07:10:02.080Z,-0.9
2018-02-18T07:15:01.618Z,-0.9
2018-02-18T07:20:01.933Z,-0.9
2018-02-18T07:25:01.728Z,-0.6
2018-02-18T07:30:02.555Z,-0.6
2018-02-18T07:35:01.213Z,-0.6
2018-02-18T07:40:01.354Z,-0.6
2018-02-18T07:45:01.858Z,-0.6
2018-02-18T07:50:02.568Z,0
2018-02-18T07:55:01.425Z,0
2018-02-18T08:00:01.835Z,0.1
2018-02-18T08:05:01.434Z,0.1
2018-02-18T08:10:01.834Z,0.1
2018-02-18T08:15:01.699Z,0.1
2018-02-18T08:20:01.753Z,0.1
2018-02-18T08:25:02.120Z,0.1
2018-02-18T08:30:01.381Z,0.1
2018-02-18T08:35:01.751Z,0.1
2018-02-18T08:40:02.530Z,0.1
2018-02-18T08:45:02.177Z,0.1
2018-02-18T08:50:01.340Z,0.1
2018-02-18T08:55:02.658Z,0.1
2018-02-18T09:00:01.270Z,0.1
2018-02-18T09:05:01.330Z,0.1
2018-02-18T09:10:01.641Z,0.1
2018-02-18T09:15:01.711Z,0.1
2018-02-18T09:20:01.488Z,0.1
2018-02-18T09:25:01.912Z,0.1
2018-02-18T09:30:01.909Z,1.8
2018-02-18T09:35:02.016Z,1.8
2018-02-18T09:40:02.032Z,1.8
2018-02-18T09:45:02.328Z,1.8
2018-02-18T09:50:01.346Z,1.8
2018-02-18T09:55:01.897Z,1.8
2018-02-18T10:00:01.754Z,1.8
2018-02-18T10:05:03.125Z,1.8
2018-02-18T10:10:01.906Z,1.8
2018-02-18T10:15:01.749Z,1.8
2018-02-18T10:20:01.621Z,3.5
2018-02-18T10:25:02.176Z,3.5
2018-02-18T10:30:01.751Z,3.5
2018-02-18T10:35:01.947Z,3.5
2018-02-18T10:40:02.037Z,3.5
2018-02-18T10:45:01.500Z,3.5
2018-02-18T10:50:01.539Z,3.5
2018-02-18T10:55:01.749Z,3.5
2018-02-18T11:00:01.853Z,3.5
2018-02-18T11:05:01.224Z,4.7
2018-02-18T11:10:01.386Z,4.9
2018-02-18T11:15:02.329Z,4.9
2018-02-18T11:20:01.917Z,4.9
2018-02-18T11:25:01.368Z,4.9
2018-02-18T11:30:01.952Z,5.5
2018-02-18T11:35:02.445Z,5.5
2018-02-18T11:40:01.174Z,5.5
2018-02-18T11:45:02.113Z,5.5
2018-02-18T11:50:01.209Z,5.5
2018-02-18T11:55:02.440Z,5.5
2018-02-18T12:00:01.755Z,6
2018-02-18T12:05:01.789Z,6
2018-02-18T12:10:01.894Z,6
2018-02-18T12:15:02.821Z,6
2018-02-18T12:20:01.370Z,6
2018-02-18T12:25:02.166Z,6
2018-02-18T12:30:01.720Z,6
2018-02-18T12:35:01.584Z,6
2018-02-18T12:40:01.413Z,6
2018-02-18T12:45:01.894Z,6.1
2018-02-18T12:50:01.798Z,6.1
2018-02-18T12:55:01.996Z,6.1
2018-02-18T13:00:01.671Z,6.3
2018-02-18T13:05:01.819Z,6.4
2018-02-18T13:10:01.804Z,6.4
2018-02-18T13:15:01.321Z,6.4
2018-02-18T13:20:02.542Z,6.4
2018-02-18T13:25:02.007Z,6.4
2018-02-18T13:30:01.568Z,6.4
2018-02-18T13:35:02.431Z,6.4
2018-02-18T13:40:01.490Z,6.4
2018-02-18T13:45:01.489Z,6.4
2018-02-18T13:50:01.773Z,6.4
2018-02-18T13:55:02.342Z,6.4
2018-02-18T14:00:01.918Z,6.4
2018-02-18T14:05:01.365Z,6.4
2018-02-18T14:10:01.333Z,6.4
2018-02-18T14:15:01.983Z,6.4
2018-02-18T14:20:01.763Z,6.4
2018-02-18T14:25:01.263Z,6.4
2018-02-18T14:30:02.341Z,6
2018-02-18T14:35:01.266Z,6
2018-02-18T14:40:02.079Z,5.8
2018-02-18T14:45:01.248Z,5.8
2018-02-18T14:50:01.702Z,5.8
2018-02-18T14:55:01.812Z,5.8
2018-02-18T15:00:01.302Z,5.8
2018-02-18T15:05:02.065Z,5.8
2018-02-18T15:10:01.854Z,5.8
2018-02-18T15:15:01.209Z,5.8
2018-02-18T15:20:02.314Z,5.8
2018-02-18T15:25:01.965Z,5.5
2018-02-18T15:30:01.236Z,5.5
2018-02-18T15:35:02.504Z,5.5
2018-02-18T15:40:01.392Z,5.3
2018-02-18T15:45:01.233Z,5.3
2018-02-18T15:50:01.421Z,5.2
2018-02-18T15:55:01.503Z,5.2
2018-02-18T16:00:01.577Z,5.2
2018-02-18T16:05:01.534Z,4.9
2018-02-18T16:10:02.050Z,4.9
2018-02-18T16:15:01.913Z,4.9
2018-02-18T16:20:01.733Z,4.9
2018-02-18T16:25:01.920Z,4.9
2018-02-18T16:30:02.005Z,4.4
2018-02-18T16:35:02.054Z,4.3
2018-02-18T16:40:02.283Z,4.3
2018-02-18T16:45:01.325Z,4.3
2018-02-18T16:50:01.464Z,3.9
2018-02-18T16:55:01.954Z,3.8
2018-02-18T17:00:02.302Z,3.8
2018-02-18T17:05:01.580Z,3.8
2018-02-18T17:10:01.272Z,3.3
2018-02-18T17:15:02.395Z,3.3
2018-02-18T17:20:02.038Z,3.3
2018-02-18T17:25:01.420Z,3.3
2018-02-18T17:30:01.713Z,2.8
2018-02-18T17:35:02.328Z,2.8
2018-02-18T17:40:01.238Z,2.7
2018-02-18T17:45:01.415Z,2.7
2018-02-18T17:50:01.607Z,2.7
2018-02-18T17:55:02.019Z,2.7
2018-02-18T18:00:01.596Z,2.7
2018-02-18T18:05:01.331Z,1.9
2018-02-18T18:10:02.159Z,1.9
2018-02-18T18:15:01.334Z,1.9
2018-02-18T18:20:02.161Z,1.9
2018-02-18T18:25:02.604Z,1.9
2018-02-18T18:30:01.625Z,1.2
2018-02-18T18:35:01.740Z,1.2
2018-02-18T18:40:01.798Z,1.2
2018-02-18T18:45:01.709Z,0.8
2018-02-18T18:50:01.493Z,0.8
2018-02-18T18:55:01.793Z,0.6
2018-02-18T19:00:01.665Z,0.6
2018-02-18T19:05:01.823Z,0.6
2018-02-18T19:10:01.789Z,0.6
2018-02-18T19:15:02.473Z,0.6
2018-02-18T19:20:02.367Z,0.6
2018-02-18T19:25:01.919Z,0.7
2018-02-18T19:30:01.852Z,0.7
2018-02-18T19:35:01.894Z,0.7
2018-02-18T19:40:01.584Z,0.7
2018-02-18T19:45:01.957Z,0.6
2018-02-18T19:50:01.942Z,0.7
2018-02-18T19:55:01.324Z,0.7
2018-02-18T20:00:02.321Z,0.7
2018-02-18T20:05:02.032Z,0.7
2018-02-18T20:10:01.880Z,0.7
2018-02-18T20:15:01.526Z,0.9
2018-02-18T20:20:02.476Z,0.9
2018-02-18T20:25:01.436Z,0.9
2018-02-18T20:30:02.064Z,0.9
2018-02-18T20:35:01.835Z,1
2018-02-18T20:40:01.910Z,1
2018-02-18T20:45:01.917Z,1
2018-02-18T20:50:01.425Z,1
2018-02-18T20:55:02.524Z,1
2018-02-18T21:00:01.820Z,1.1
2018-02-18T21:05:02.114Z,1.1
2018-02-18T21:10:01.680Z,1
2018-02-18T21:15:01.781Z,1
2018-02-18T21:20:01.670Z,1
2018-02-18T21:25:01.791Z,1
2018-02-18T21:30:01.822Z,1
2018-02-18T21:35:01.382Z,1
2018-02-18T21:40:01.178Z,1
2018-02-18T21:45:02.460Z,0.9
2018-02-18T21:50:01.502Z,0.9
2018-02-18T21:55:01.439Z,0.9
2018-02-18T22:00:01.818Z,0.9
2018-02-18T22:05:02.032Z,0.9
2018-02-18T22:10:01.839Z,0.9
2018-02-18T22:15:01.914Z,0.9
2018-02-18T22:20:01.774Z,0.9
2018-02-18T22:25:01.872Z,0.9
2018-02-18T22:30:01.332Z,0.9
2018-02-18T22:35:02.464Z,0.9
2018-02-18T22:40:01.960Z,0.9
2018-02-18T22:45:01.856Z,0.9
2018-02-18T22:50:01.353Z,0.8
2018-02-18T22:55:01.817Z,0.8
2018-02-18T23:00:01.546Z,0.8
2018-02-18T23:05:01.342Z,0.8
2018-02-18T23:10:02.303Z,0.8
2018-02-18T23:15:01.924Z,0.8
2018-02-18T23:20:01.344Z,0.8
2018-02-18T23:25:01.256Z,0.8
2018-02-18T23:30:01.710Z,0.8
2018-02-18T23:35:01.586Z,0.8
2018-02-18T23:40:01.566Z,0.8
2018-02-18T23:45:02.178Z,0.8
2018-02-18T23:50:01.962Z,0.8
2018-02-18T23:55:01.793Z,0.8
